Time;durP1;ratioP1;P1;durP2;ratioP2;P2;SDS_P1;SDS_P2;PMS_P1;PMS_P2;Temp;Humidity;BMP_temperature;BMP_pressure;BME280_temperature;BME280_humidity;BME280_pressure;Samples;Min_cycle;Max_cycle;Signal;HPM_P1;HPM_P2
2022/01/09 00:02:11;;;;;;;5.15;3.30;;;;;;;;;;5025965;28;20286;-55
2022/01/09 00:04:36;;;;;;;4.97;3.37;;;;;;;;;;5026020;28;20033;-57
2022/01/09 00:07:01;;;;;;;5.27;3.23;;;;;;;;;;5026404;28;20032;-56
2022/01/09 00:09:28;;;;;;;6.25;2.70;;;;;;;;;;5026443;28;20056;-56
2022/01/09 00:11:53;;;;;;;5.78;3.00;;;;;;;;;;5026309;28;20484;-57
2022/01/09 00:14:18;;;;;;;3.83;2.60;;;;;;;;;;5012728;28;20030;-56
2022/01/09 00:16:44;;;;;;;3.47;2.50;;;;;;;;;;5023962;28;20389;-53
2022/01/09 00:19:09;;;;;;;4.83;2.73;;;;;;;;;;5026269;28;20084;-53
2022/01/09 00:21:34;;;;;;;4.73;2.87;;;;;;;;;;5026076;28;20330;-54
2022/01/09 00:23:59;;;;;;;5.20;2.87;;;;;;;;;;5021058;28;20293;-56
2022/01/09 00:26:25;;;;;;;5.13;3.17;;;;;;;;;;5021549;28;20132;-56
2022/01/09 00:28:50;;;;;;;4.77;2.53;;;;;;;;;;5025429;28;20271;-55
2022/01/09 00:31:15;;;;;;;5.53;3.23;;;;;;;;;;5026063;28;20013;-56
2022/01/09 00:33:40;;;;;;;5.32;3.38;;;;;;;;;;5025464;28;20359;-55
2022/01/09 00:36:06;;;;;;;5.10;3.00;;;;;;;;;;5025909;28;20024;-56
2022/01/09 00:38:31;;;;;;;4.85;2.88;;;;;;;;;;5026161;28;20109;-56
2022/01/09 00:40:56;;;;;;;4.90;2.70;;;;;;;;;;5025734;28;20736;-56
2022/01/09 00:43:21;;;;;;;4.83;2.87;;;;;;;;;;5025415;28;20347;-56
2022/01/09 00:45:46;;;;;;;4.80;2.90;;;;;;;;;;5025732;28;20377;-59
2022/01/09 00:48:12;;;;;;;4.60;3.00;;;;;;;;;;5025422;28;20276;-56
2022/01/09 00:50:40;;;;;;;5.63;3.03;;;;;;;;;;5024622;28;20296;-57
2022/01/09 00:53:05;;;;;;;4.78;2.72;;;;;;;;;;5025505;28;20545;-55
2022/01/09 00:55:30;;;;;;;4.15;2.83;;;;;;;;;;5025511;28;20021;-55
2022/01/09 00:57:55;;;;;;;4.55;2.95;;;;;;;;;;5025164;28;20053;-55
2022/01/09 01:00:21;;;;;;;4.27;2.87;;;;;;;;;;5025310;28;20084;-54
2022/01/09 01:02:46;;;;;;;4.63;2.80;;;;;;;;;;5024859;28;20337;-55
2022/01/09 01:05:12;;;;;;;6.00;3.47;;;;;;;;;;5025369;28;20789;-55
2022/01/09 01:07:37;;;;;;;4.88;3.08;;;;;;;;;;5025179;28;20544;-51
2022/01/09 01:10:03;;;;;;;4.53;2.88;;;;;;;;;;5025151;28;20030;-56
2022/01/09 01:12:28;;;;;;;4.72;2.97;;;;;;;;;;5024742;28;20025;-56
2022/01/09 01:14:53;;;;;;;5.85;3.17;;;;;;;;;;5008952;28;20072;-55
2022/01/09 01:17:19;;;;;;;4.25;3.20;;;;;;;;;;5024730;28;20017;-56
2022/01/09 01:19:44;;;;;;;4.93;3.30;;;;;;;;;;5024909;28;20408;-56
2022/01/09 01:22:10;;;;;;;4.10;2.70;;;;;;;;;;5024592;28;20036;-52
2022/01/09 01:24:37;;;;;;;4.17;2.67;;;;;;;;;;5024755;28;20037;-56
2022/01/09 01:27:02;;;;;;;4.20;2.90;;;;;;;;;;5024781;28;20110;-55
2022/01/09 01:29:27;;;;;;;4.63;3.00;;;;;;;;;;5024989;28;20050;-54
2022/01/09 01:31:52;;;;;;;4.20;3.05;;;;;;;;;;5024932;28;20018;-52
2022/01/09 01:34:18;;;;;;;3.97;2.77;;;;;;;;;;5023280;28;20136;-52
2022/01/09 01:36:43;;;;;;;5.27;3.20;;;;;;;;;;5024366;28;20272;-54
2022/01/09 01:39:08;;;;;;;5.53;3.20;;;;;;;;;;5024497;28;20025;-54
2022/01/09 01:41:33;;;;;;;5.18;3.00;;;;;;;;;;5019998;28;20484;-53
2022/01/09 01:43:59;;;;;;;3.92;2.70;;;;;;;;;;5015465;28;20042;-55
2022/01/09 01:46:24;;;;;;;4.40;2.63;;;;;;;;;;5024429;28;20041;-58
2022/01/09 01:48:49;;;;;;;5.60;2.90;;;;;;;;;;5024084;28;20355;-55
2022/01/09 01:51:14;;;;;;;3.93;3.00;;;;;;;;;;5024443;28;20025;-55
2022/01/09 01:53:40;;;;;;;4.57;3.20;;;;;;;;;;5023916;28;20017;-56
2022/01/09 01:56:05;;;;;;;4.28;3.08;;;;;;;;;;5022726;28;20301;-55
2022/01/09 01:58:34;;;;;;;4.40;2.80;;;;;;;;;;5024094;28;20120;-55
2022/01/09 02:00:59;;;;;;;4.80;3.00;;;;;;;;;;5024073;28;20021;-55
2022/01/09 02:03:25;;;;;;;5.17;3.17;;;;;;;;;;5022984;28;20032;-53
2022/01/09 02:05:50;;;;;;;4.70;3.30;;;;;;;;;;5023947;28;20292;-54
2022/01/09 02:08:15;;;;;;;4.60;2.87;;;;;;;;;;5019218;28;20327;-53
2022/01/09 02:10:42;;;;;;;4.90;3.20;;;;;;;;;;5020870;28;20025;-55
2022/01/09 02:13:07;;;;;;;4.03;2.78;;;;;;;;;;5023786;28;20091;-55
2022/01/09 02:15:33;;;;;;;4.10;2.80;;;;;;;;;;5023763;28;20029;-55
2022/01/09 02:17:59;;;;;;;4.60;3.03;;;;;;;;;;5023604;28;20492;-55
2022/01/09 02:20:24;;;;;;;4.38;2.80;;;;;;;;;;5023984;28;20029;-56
2022/01/09 02:22:50;;;;;;;5.27;3.47;;;;;;;;;;5023312;28;20038;-55
2022/01/09 02:25:15;;;;;;;4.63;2.97;;;;;;;;;;5023811;28;20029;-54
2022/01/09 02:27:40;;;;;;;4.00;2.93;;;;;;;;;;5023659;28;20108;-53
2022/01/09 02:30:06;;;;;;;4.40;3.00;;;;;;;;;;5023581;28;20264;-53
2022/01/09 02:32:31;;;;;;;4.30;2.70;;;;;;;;;;5023674;28;20341;-55
2022/01/09 02:34:56;;;;;;;4.30;2.97;;;;;;;;;;5023264;28;20060;-52
2022/01/09 02:37:21;;;;;;;4.53;3.07;;;;;;;;;;5023631;28;20057;-55
2022/01/09 02:39:48;;;;;;;4.33;3.03;;;;;;;;;;5023644;28;20140;-57
2022/01/09 02:42:17;;;;;;;5.28;2.97;;;;;;;;;;5023587;28;20131;-55
2022/01/09 02:44:42;;;;;;;4.63;3.00;;;;;;;;;;5023162;28;20500;-55
2022/01/09 02:47:08;;;;;;;4.87;3.17;;;;;;;;;;5023414;28;20063;-56
2022/01/09 02:49:33;;;;;;;4.13;2.85;;;;;;;;;;5023532;28;20037;-56
2022/01/09 02:51:58;;;;;;;4.75;3.20;;;;;;;;;;5023477;28;20033;-55
2022/01/09 02:57:08;;;;;;;4.45;2.83;;;;;;;;;;5023433;28;20119;-55
2022/01/09 02:59:33;;;;;;;5.30;3.27;;;;;;;;;;5023800;28;20692;-54
2022/01/09 03:01:58;;;;;;;4.28;3.13;;;;;;;;;;5023227;28;20280;-53
2022/01/09 03:04:23;;;;;;;4.45;2.70;;;;;;;;;;5023627;28;20029;-56
2022/01/09 03:06:49;;;;;;;4.63;3.27;;;;;;;;;;5023178;28;20135;-56
2022/01/09 03:09:14;;;;;;;4.07;2.90;;;;;;;;;;5023416;28;20096;-55
2022/01/09 03:11:40;;;;;;;4.30;3.10;;;;;;;;;;5023687;28;20525;-56
2022/01/09 03:14:07;;;;;;;4.18;2.90;;;;;;;;;;5013183;28;20273;-56
2022/01/09 03:16:32;;;;;;;3.92;2.83;;;;;;;;;;5022744;28;20507;-55
2022/01/09 03:18:57;;;;;;;5.47;2.80;;;;;;;;;;5027013;28;20029;-56
2022/01/09 03:21:23;;;;;;;4.67;2.90;;;;;;;;;;5027388;28;20063;-55
2022/01/09 03:23:48;;;;;;;4.87;3.07;;;;;;;;;;5026998;28;20127;-55
2022/01/09 03:26:13;;;;;;;4.83;3.10;;;;;;;;;;5027173;28;20080;-56
2022/01/09 03:28:39;;;;;;;4.35;3.08;;;;;;;;;;5027288;28;20049;-53
2022/01/09 03:31:04;;;;;;;4.67;3.03;;;;;;;;;;5027046;28;20539;-53
2022/01/09 03:33:29;;;;;;;3.97;2.93;;;;;;;;;;5027154;28;20674;-56
2022/01/09 03:35:54;;;;;;;4.67;3.17;;;;;;;;;;5026918;28;20459;-55
2022/01/09 03:38:19;;;;;;;4.33;3.07;;;;;;;;;;5027209;28;20420;-56
2022/01/09 03:40:45;;;;;;;4.17;2.90;;;;;;;;;;5026873;28;20504;-56
2022/01/09 03:43:10;;;;;;;4.57;3.07;;;;;;;;;;5026912;28;20010;-54
2022/01/09 03:45:35;;;;;;;5.37;3.37;;;;;;;;;;5027091;28;20296;-56
2022/01/09 03:48:00;;;;;;;3.90;2.87;;;;;;;;;;5027760;28;20363;-56
2022/01/09 03:50:25;;;;;;;4.37;3.10;;;;;;;;;;5027617;28;20120;-56
2022/01/09 03:52:51;;;;;;;4.10;2.88;;;;;;;;;;5026977;28;20057;-55
2022/01/09 03:55:17;;;;;;;5.00;2.92;;;;;;;;;;5026644;28;20045;-56
2022/01/09 03:57:43;;;;;;;4.70;3.13;;;;;;;;;;5026758;28;20029;-55
2022/01/09 04:00:09;;;;;;;4.63;3.00;;;;;;;;;;5026705;28;20129;-55
2022/01/09 04:02:35;;;;;;;4.32;2.95;;;;;;;;;;5026360;28;20511;-54
2022/01/09 04:05:00;;;;;;;4.73;2.90;;;;;;;;;;5026232;28;20041;-55
2022/01/09 04:07:25;;;;;;;4.82;3.10;;;;;;;;;;5027148;28;20268;-57
2022/01/09 04:09:50;;;;;;;4.20;2.80;;;;;;;;;;5025911;28;20477;-56
2022/01/09 04:12:18;;;;;;;4.10;2.67;;;;;;;;;;5027037;28;20654;-55
2022/01/09 04:14:44;;;;;;;4.88;3.33;;;;;;;;;;5026373;28;20108;-55
2022/01/09 04:17:14;;;;;;;4.20;3.03;;;;;;;;;;5027212;28;20104;-55
2022/01/09 04:19:39;;;;;;;4.30;3.03;;;;;;;;;;5021354;28;20042;-57
2022/01/09 04:22:04;;;;;;;4.03;2.72;;;;;;;;;;5017543;28;20025;-55
2022/01/09 04:24:30;;;;;;;4.57;3.27;;;;;;;;;;5025690;28;20435;-55
2022/01/09 04:26:55;;;;;;;4.13;3.20;;;;;;;;;;5024944;28;20439;-56
2022/01/09 04:29:20;;;;;;;4.03;2.70;;;;;;;;;;5026252;28;20448;-53
2022/01/09 04:31:45;;;;;;;4.43;3.00;;;;;;;;;;5026014;28;20052;-56
2022/01/09 04:34:11;;;;;;;2.95;2.30;;;;;;;;;;5025719;28;20095;-55
2022/01/09 04:36:36;;;;;;;4.50;2.93;;;;;;;;;;5025871;28;20029;-53
2022/01/09 04:39:01;;;;;;;4.30;2.80;;;;;;;;;;5025433;28;20032;-56
2022/01/09 04:41:26;;;;;;;4.10;2.97;;;;;;;;;;5025474;28;20314;-53
2022/01/09 04:43:51;;;;;;;4.27;2.77;;;;;;;;;;5025294;28;20542;-56
2022/01/09 04:46:24;;;;;;;4.10;3.20;;;;;;;;;;5025455;28;20678;-56
2022/01/09 04:48:52;;;;;;;4.10;2.83;;;;;;;;;;5025356;28;20798;-56
2022/01/09 04:51:18;;;;;;;4.40;2.95;;;;;;;;;;5025491;28;20111;-56
2022/01/09 04:53:43;;;;;;;4.45;3.08;;;;;;;;;;5025365;28;20108;-55
2022/01/09 04:56:08;;;;;;;4.77;3.07;;;;;;;;;;5025608;28;20033;-54
2022/01/09 04:58:33;;;;;;;3.90;2.73;;;;;;;;;;5025029;28;20029;-55
2022/01/09 05:00:59;;;;;;;3.93;2.90;;;;;;;;;;5025173;28;20817;-56
2022/01/09 05:03:24;;;;;;;4.55;3.28;;;;;;;;;;5025016;28;20366;-55
2022/01/09 05:05:50;;;;;;;4.28;3.10;;;;;;;;;;5025152;28;20037;-55
2022/01/09 05:08:15;;;;;;;4.80;3.20;;;;;;;;;;5025277;28;20042;-56
2022/01/09 05:10:40;;;;;;;4.03;2.90;;;;;;;;;;5025022;28;20082;-54
2022/01/09 05:13:05;;;;;;;4.90;3.25;;;;;;;;;;5024478;28;20873;-52
2022/01/09 05:15:31;;;;;;;4.47;2.70;;;;;;;;;;5024240;28;20030;-56
2022/01/09 05:18:00;;;;;;;4.10;2.80;;;;;;;;;;5014948;28;20114;-56
2022/01/09 05:20:25;;;;;;;3.60;2.67;;;;;;;;;;5025192;28;20036;-55
2022/01/09 05:22:50;;;;;;;3.97;2.60;;;;;;;;;;5024284;28;21552;-52
2022/01/09 05:25:15;;;;;;;4.83;3.33;;;;;;;;;;5025031;28;20492;-51
2022/01/09 05:27:41;;;;;;;4.10;2.83;;;;;;;;;;5024889;28;20615;-55
2022/01/09 05:30:06;;;;;;;4.50;3.00;;;;;;;;;;5025128;28;20033;-52
2022/01/09 05:32:31;;;;;;;3.75;2.55;;;;;;;;;;5024893;28;20034;-54
2022/01/09 05:34:57;;;;;;;3.80;2.70;;;;;;;;;;5024396;28;20498;-55
2022/01/09 05:37:22;;;;;;;3.73;2.60;;;;;;;;;;5024716;28;20330;-58
2022/01/09 05:39:47;;;;;;;3.93;2.77;;;;;;;;;;5024446;28;20029;-56
2022/01/09 05:42:13;;;;;;;3.40;2.80;;;;;;;;;;5024337;28;20033;-56
2022/01/09 05:44:38;;;;;;;4.15;2.85;;;;;;;;;;5024881;28;20283;-57
2022/01/09 05:47:03;;;;;;;3.87;2.83;;;;;;;;;;5024162;28;20589;-56
2022/01/09 05:49:28;;;;;;;4.13;2.95;;;;;;;;;;5024599;28;21109;-56
2022/01/09 05:51:54;;;;;;;4.28;2.78;;;;;;;;;;5010448;28;20068;-57
2022/01/09 05:54:19;;;;;;;3.80;2.70;;;;;;;;;;5017418;28;20036;-56
2022/01/09 05:56:44;;;;;;;4.57;3.10;;;;;;;;;;5024307;28;20033;-54
2022/01/09 05:59:09;;;;;;;4.53;2.90;;;;;;;;;;5024021;28;20275;-53
2022/01/09 06:01:35;;;;;;;3.90;2.60;;;;;;;;;;5024515;28;20640;-55
2022/01/09 06:04:00;;;;;;;4.13;2.83;;;;;;;;;;5023673;28;20037;-56
2022/01/09 06:06:26;;;;;;;4.05;2.85;;;;;;;;;;5024490;28;20055;-54
2022/01/09 06:08:51;;;;;;;3.73;2.73;;;;;;;;;;5013965;28;20034;-54
2022/01/09 06:11:16;;;;;;;3.97;2.70;;;;;;;;;;5007034;28;20664;-54
2022/01/09 06:13:41;;;;;;;4.53;3.07;;;;;;;;;;5004871;28;20087;-52
2022/01/09 06:16:07;;;;;;;4.68;3.00;;;;;;;;;;5003794;28;20038;-55
2022/01/09 06:18:32;;;;;;;5.00;3.38;;;;;;;;;;5004438;28;20412;-53
2022/01/09 06:20:57;;;;;;;4.07;2.85;;;;;;;;;;5021637;28;20025;-56
2022/01/09 06:23:23;;;;;;;3.70;2.67;;;;;;;;;;5020005;28;20041;-54
2022/01/09 06:25:48;;;;;;;4.93;3.20;;;;;;;;;;5017757;28;20686;-58
2022/01/09 06:28:13;;;;;;;4.35;2.90;;;;;;;;;;5006098;28;20032;-55
2022/01/09 06:30:39;;;;;;;3.97;2.65;;;;;;;;;;5005838;28;20455;-55
2022/01/09 06:33:04;;;;;;;5.15;2.67;;;;;;;;;;5021537;28;20504;-56
2022/01/09 06:35:29;;;;;;;6.00;3.03;;;;;;;;;;5023392;28;20025;-54
2022/01/09 06:37:55;;;;;;;3.87;2.70;;;;;;;;;;5007783;28;20628;-55
2022/01/09 06:40:20;;;;;;;3.72;2.70;;;;;;;;;;5012160;28;20268;-52
2022/01/09 06:42:45;;;;;;;4.17;2.80;;;;;;;;;;5012115;28;20439;-52
2022/01/09 06:45:10;;;;;;;3.75;2.72;;;;;;;;;;5010932;28;20272;-56
2022/01/09 06:47:36;;;;;;;5.43;3.30;;;;;;;;;;5010709;28;20054;-57
2022/01/09 06:50:01;;;;;;;3.92;2.85;;;;;;;;;;5005013;28;20018;-59
2022/01/09 06:52:26;;;;;;;4.53;2.87;;;;;;;;;;5017472;28;20100;-57
2022/01/09 06:54:51;;;;;;;4.43;2.90;;;;;;;;;;5018463;28;20350;-56
2022/01/09 06:57:17;;;;;;;4.40;2.93;;;;;;;;;;5019015;28;20076;-57
2022/01/09 06:59:42;;;;;;;3.70;2.80;;;;;;;;;;5011535;28;20120;-53
2022/01/09 07:02:07;;;;;;;4.10;2.90;;;;;;;;;;5008762;28;20113;-57
2022/01/09 07:04:32;;;;;;;3.83;2.80;;;;;;;;;;5004062;28;20288;-53
2022/01/09 07:06:57;;;;;;;4.30;3.10;;;;;;;;;;5019957;28;20304;-55
2022/01/09 07:09:23;;;;;;;3.33;2.77;;;;;;;;;;5023319;28;20033;-57
2022/01/09 07:11:48;;;;;;;3.85;2.70;;;;;;;;;;5023523;28;20048;-55
2022/01/09 07:14:14;;;;;;;3.85;2.95;;;;;;;;;;5022181;28;20481;-56
2022/01/09 07:16:39;;;;;;;4.57;3.07;;;;;;;;;;5023441;28;20025;-53
2022/01/09 07:19:04;;;;;;;4.25;2.80;;;;;;;;;;5023182;28;20160;-55
2022/01/09 07:21:29;;;;;;;4.80;3.00;;;;;;;;;;5023299;28;20083;-57
2022/01/09 07:23:55;;;;;;;4.82;3.00;;;;;;;;;;5023244;28;20083;-56
2022/01/09 07:26:20;;;;;;;4.10;2.97;;;;;;;;;;5023652;28;20041;-59
2022/01/09 07:28:45;;;;;;;4.10;3.00;;;;;;;;;;5007215;28;20273;-53
2022/01/09 07:31:10;;;;;;;3.43;2.80;;;;;;;;;;5007408;28;20096;-58
2022/01/09 07:33:36;;;;;;;4.97;3.47;;;;;;;;;;5023388;28;20268;-57
2022/01/09 07:36:01;;;;;;;3.95;3.20;;;;;;;;;;5023255;28;20010;-57
2022/01/09 07:38:26;;;;;;;4.57;3.00;;;;;;;;;;5023209;28;20116;-57
2022/01/09 07:40:51;;;;;;;4.15;2.90;;;;;;;;;;5022706;28;20060;-56
2022/01/09 07:43:17;;;;;;;5.15;3.53;;;;;;;;;;5023021;28;20399;-60
2022/01/09 07:45:42;;;;;;;4.22;2.97;;;;;;;;;;5012900;28;20037;-55
2022/01/09 07:48:07;;;;;;;4.83;3.10;;;;;;;;;;5022932;28;20021;-56
2022/01/09 07:50:33;;;;;;;5.23;3.17;;;;;;;;;;5015706;28;20803;-58
2022/01/09 07:52:58;;;;;;;5.17;3.07;;;;;;;;;;5007122;28;20425;-55
2022/01/09 07:55:23;;;;;;;5.10;3.30;;;;;;;;;;4985498;28;20289;-58
2022/01/09 07:57:48;;;;;;;3.90;3.20;;;;;;;;;;5016072;28;20281;-55
2022/01/09 08:00:14;;;;;;;4.22;3.05;;;;;;;;;;5008698;28;20311;-56
2022/01/09 08:02:40;;;;;;;4.55;3.22;;;;;;;;;;5007913;28;20030;-55
2022/01/09 08:05:05;;;;;;;4.70;3.05;;;;;;;;;;5010069;28;20061;-57
2022/01/09 08:07:30;;;;;;;4.90;3.42;;;;;;;;;;5012014;28;20068;-57
2022/01/09 08:09:56;;;;;;;3.40;2.90;;;;;;;;;;5025729;28;20515;-56
2022/01/09 08:12:21;;;;;;;4.67;3.30;;;;;;;;;;5018539;28;20512;-56
2022/01/09 08:14:46;;;;;;;4.50;3.07;;;;;;;;;;5021580;28;20325;-55
2022/01/09 08:17:12;;;;;;;4.35;3.13;;;;;;;;;;5021183;28;20025;-56
2022/01/09 08:19:37;;;;;;;3.80;2.70;;;;;;;;;;5023968;28;20407;-54
2022/01/09 08:22:03;;;;;;;4.03;3.00;;;;;;;;;;5025118;28;20515;-55
2022/01/09 08:24:28;;;;;;;5.22;3.45;;;;;;;;;;5025032;28;20284;-55
2022/01/09 08:26:53;;;;;;;4.85;3.03;;;;;;;;;;5024742;28;20037;-55
2022/01/09 08:29:19;;;;;;;3.93;2.87;;;;;;;;;;5025044;28;20108;-55
2022/01/09 08:31:44;;;;;;;4.33;3.30;;;;;;;;;;5025277;28;20404;-56
2022/01/09 08:34:09;;;;;;;4.45;3.17;;;;;;;;;;5006819;28;20261;-57
2022/01/09 08:36:34;;;;;;;3.80;2.67;;;;;;;;;;5019872;28;20036;-53
2022/01/09 08:39:00;;;;;;;4.38;3.03;;;;;;;;;;5025408;28;20021;-57
2022/01/09 08:41:25;;;;;;;3.97;3.10;;;;;;;;;;5025675;28;20104;-56
2022/01/09 08:43:50;;;;;;;4.87;3.20;;;;;;;;;;5017092;28;20988;-57
2022/01/09 08:46:15;;;;;;;3.80;2.90;;;;;;;;;;5025645;28;20383;-55
2022/01/09 08:48:41;;;;;;;3.93;3.00;;;;;;;;;;5025727;28;20393;-56
2022/01/09 08:51:07;;;;;;;5.53;3.20;;;;;;;;;;5025369;28;20417;-56
2022/01/09 08:53:32;;;;;;;4.65;3.10;;;;;;;;;;5014024;28;20045;-58
2022/01/09 08:55:58;;;;;;;5.50;3.25;;;;;;;;;;5025580;28;20048;-55
2022/01/09 08:58:23;;;;;;;6.77;3.93;;;;;;;;;;5003811;28;20036;-54
2022/01/09 09:00:50;;;;;;;5.63;3.57;;;;;;;;;;5012230;28;20021;-56
2022/01/09 09:03:15;;;;;;;7.45;3.80;;;;;;;;;;5009645;28;20022;-54
2022/01/09 09:05:40;;;;;;;6.43;3.67;;;;;;;;;;5007061;28;20041;-57
2022/01/09 09:08:06;;;;;;;6.97;3.33;;;;;;;;;;5007774;28;20524;-56
2022/01/09 09:10:31;;;;;;;7.73;3.50;;;;;;;;;;5007708;28;20024;-56
2022/01/09 09:12:56;;;;;;;4.75;3.35;;;;;;;;;;5008254;28;20037;-56
2022/01/09 09:15:22;;;;;;;5.00;3.43;;;;;;;;;;5008984;28;20025;-55
2022/01/09 09:17:47;;;;;;;4.88;3.30;;;;;;;;;;5007175;28;20044;-57
2022/01/09 09:20:12;;;;;;;5.30;3.40;;;;;;;;;;5009622;28;20021;-57
2022/01/09 09:22:37;;;;;;;5.13;3.47;;;;;;;;;;5006147;28;20053;-57
2022/01/09 09:25:03;;;;;;;5.22;3.42;;;;;;;;;;5011438;28;20021;-55
2022/01/09 09:27:30;;;;;;;4.90;2.90;;;;;;;;;;5009047;28;20116;-55
2022/01/09 09:29:59;;;;;;;5.25;3.42;;;;;;;;;;5007162;28;20026;-58
2022/01/09 09:32:24;;;;;;;4.50;3.30;;;;;;;;;;5007390;28;20061;-57
2022/01/09 09:34:49;;;;;;;4.30;3.10;;;;;;;;;;5006811;28;20076;-58
2022/01/09 09:37:14;;;;;;;5.23;3.17;;;;;;;;;;5011795;28;20284;-58
2022/01/09 09:39:40;;;;;;;4.53;3.30;;;;;;;;;;5006992;28;20029;-53
2022/01/09 09:42:05;;;;;;;4.53;3.30;;;;;;;;;;5006093;28;20017;-54
2022/01/09 09:44:30;;;;;;;6.35;3.70;;;;;;;;;;5006668;28;20265;-56
2022/01/09 09:46:55;;;;;;;4.93;3.65;;;;;;;;;;5005970;28;20190;-57
2022/01/09 09:49:22;;;;;;;5.07;3.43;;;;;;;;;;5008761;28;20029;-57
2022/01/09 09:51:47;;;;;;;6.07;3.35;;;;;;;;;;5009165;28;20032;-53
2022/01/09 09:54:12;;;;;;;6.35;3.60;;;;;;;;;;5005983;28;20014;-55
2022/01/09 09:56:37;;;;;;;5.40;3.30;;;;;;;;;;5006406;28;20029;-57
2022/01/09 09:59:03;;;;;;;4.20;3.10;;;;;;;;;;5006381;28;20026;-56
2022/01/09 10:01:29;;;;;;;5.22;3.38;;;;;;;;;;5005341;28;20018;-54
2022/01/09 10:03:55;;;;;;;5.28;3.58;;;;;;;;;;5003833;28;20034;-56
2022/01/09 10:06:32;;;;;;;4.20;3.13;;;;;;;;;;5016212;28;20045;-57
2022/01/09 10:08:57;;;;;;;5.20;3.40;;;;;;;;;;5023681;28;20018;-56
2022/01/09 10:11:23;;;;;;;5.63;3.33;;;;;;;;;;5018364;28;20026;-53
2022/01/09 10:13:48;;;;;;;6.07;3.03;;;;;;;;;;5004539;28;20084;-59
2022/01/09 10:16:14;;;;;;;4.13;2.83;;;;;;;;;;5003758;28;20034;-57
2022/01/09 10:18:39;;;;;;;4.88;3.17;;;;;;;;;;5018554;28;20022;-56
2022/01/09 10:21:26;;;;;;;4.82;3.20;;;;;;;;;;5010407;28;20032;-56
2022/01/09 10:24:01;;;;;;;4.53;3.50;;;;;;;;;;5022193;28;20052;-56
2022/01/09 10:26:27;;;;;;;4.63;3.22;;;;;;;;;;5010143;28;20103;-56
2022/01/09 10:28:52;;;;;;;5.00;3.15;;;;;;;;;;5019606;28;20065;-55
2022/01/09 10:31:17;;;;;;;3.97;2.87;;;;;;;;;;5023585;28;20480;-56
2022/01/09 10:33:55;;;;;;;4.57;3.30;;;;;;;;;;5007589;28;20273;-57
2022/01/09 10:36:33;;;;;;;4.40;3.22;;;;;;;;;;5004787;28;20037;-56
2022/01/09 10:39:02;;;;;;;45.80;7.22;;;;;;;;;;5012594;28;20499;-54
2022/01/09 10:41:27;;;;;;;16.02;4.05;;;;;;;;;;5023666;28;20970;-56
2022/01/09 10:43:52;;;;;;;8.25;3.33;;;;;;;;;;5018285;28;20026;-57
2022/01/09 10:46:17;;;;;;;9.60;3.43;;;;;;;;;;5003868;28;20120;-56
2022/01/09 10:48:43;;;;;;;8.80;3.93;;;;;;;;;;5016644;28;20029;-59
2022/01/09 10:51:09;;;;;;;5.20;2.67;;;;;;;;;;5022986;28;20033;-55
2022/01/09 10:53:37;;;;;;;8.80;3.17;;;;;;;;;;5023209;28;20420;-54
2022/01/09 10:56:13;;;;;;;8.95;3.60;;;;;;;;;;5021999;28;20021;-57
2022/01/09 10:58:42;;;;;;;6.90;3.42;;;;;;;;;;5023266;28;20562;-56
2022/01/09 11:01:10;;;;;;;7.50;3.42;;;;;;;;;;5023126;28;20006;-55
2022/01/09 11:03:36;;;;;;;6.97;3.10;;;;;;;;;;5023200;28;20033;-56
2022/01/09 11:06:02;;;;;;;6.10;3.30;;;;;;;;;;5023048;28;20523;-55
2022/01/09 11:08:28;;;;;;;7.45;3.20;;;;;;;;;;5023388;28;20068;-55
2022/01/09 11:10:53;;;;;;;8.00;2.95;;;;;;;;;;5023259;28;20621;-57
2022/01/09 11:13:18;;;;;;;7.33;3.20;;;;;;;;;;5019946;28;20028;-59
2022/01/09 11:16:32;;;;;;;5.87;3.27;;;;;;;;;;5023666;28;20136;-59
2022/01/09 11:18:29;;;;;;;5.15;3.20;;;;;;;;;;5016705;28;20558;-58
2022/01/09 11:20:55;;;;;;;5.53;2.85;;;;;;;;;;5015139;28;20030;-57
2022/01/09 11:23:20;;;;;;;5.45;2.80;;;;;;;;;;5022319;28;20045;-56
2022/01/09 11:25:49;;;;;;;4.10;2.60;;;;;;;;;;5022017;28;20037;-56
2022/01/09 11:28:15;;;;;;;4.45;2.97;;;;;;;;;;5021923;28;20033;-55
2022/01/09 11:30:59;;;;;;;6.00;3.13;;;;;;;;;;5023076;28;20035;-55
2022/01/09 11:33:25;;;;;;;5.03;2.90;;;;;;;;;;5022940;28;20025;-54
2022/01/09 11:36:04;;;;;;;5.40;3.10;;;;;;;;;;5026059;28;20034;-56
2022/01/09 11:38:41;;;;;;;5.22;2.65;;;;;;;;;;5026870;28;20075;-55
2022/01/09 11:41:26;;;;;;;4.65;2.90;;;;;;;;;;5026659;28;20500;-55
2022/01/09 11:43:54;;;;;;;5.75;3.05;;;;;;;;;;5026252;28;20032;-56
2022/01/09 11:46:20;;;;;;;4.63;2.97;;;;;;;;;;5026745;28;20037;-61
2022/01/09 11:48:51;;;;;;;4.88;3.10;;;;;;;;;;5026881;28;20024;-62
2022/01/09 11:51:17;;;;;;;5.57;2.95;;;;;;;;;;5026499;28;20029;-57
2022/01/09 11:54:00;;;;;;;5.57;2.88;;;;;;;;;;5026383;28;20044;-60
2022/01/09 11:56:41;;;;;;;4.07;2.90;;;;;;;;;;5027043;28;20040;-62
2022/01/09 11:59:15;;;;;;;3.60;2.70;;;;;;;;;;5026343;28;20693;-61
2022/01/09 12:01:41;;;;;;;5.68;3.13;;;;;;;;;;5026364;28;20496;-58
2022/01/09 12:04:06;;;;;;;4.40;2.77;;;;;;;;;;5026101;28;20025;-57
2022/01/09 12:06:40;;;;;;;6.05;2.80;;;;;;;;;;5021374;28;21335;-57
2022/01/09 12:09:07;;;;;;;5.90;3.20;;;;;;;;;;5008371;28;20026;-57
2022/01/09 12:11:51;;;;;;;5.72;3.10;;;;;;;;;;5013481;28;20018;-56
2022/01/09 12:14:36;;;;;;;3.72;2.80;;;;;;;;;;5006054;28;20334;-57
2022/01/09 12:17:01;;;;;;;5.65;2.90;;;;;;;;;;5007945;28;20033;-56
2022/01/09 12:19:45;;;;;;;5.13;2.80;;;;;;;;;;5008599;28;20013;-57
2022/01/09 12:22:11;;;;;;;5.30;3.05;;;;;;;;;;5008150;28;20022;-55
2022/01/09 12:24:40;;;;;;;7.40;2.80;;;;;;;;;;5004701;28;20518;-55
2022/01/09 12:27:24;;;;;;;4.50;3.05;;;;;;;;;;5005688;28;20034;-57
2022/01/09 12:29:49;;;;;;;4.53;2.80;;;;;;;;;;5008119;28;20073;-56
2022/01/09 12:32:35;;;;;;;4.25;2.72;;;;;;;;;;5007965;28;20061;-56
2022/01/09 12:35:15;;;;;;;5.13;2.63;;;;;;;;;;5014386;28;20037;-57
2022/01/09 12:37:44;;;;;;;5.47;3.00;;;;;;;;;;5025815;28;20112;-57
2022/01/09 12:40:10;;;;;;;4.70;2.80;;;;;;;;;;5022677;28;20024;-58
2022/01/09 12:42:35;;;;;;;4.63;3.05;;;;;;;;;;5025866;28;20021;-58
2022/01/09 12:45:01;;;;;;;4.90;3.00;;;;;;;;;;5021841;28;20518;-56
2022/01/09 12:47:37;;;;;;;4.45;3.00;;;;;;;;;;5005402;28;20546;-56
2022/01/09 12:50:02;;;;;;;5.35;2.70;;;;;;;;;;5005575;28;20018;-55
2022/01/09 12:52:27;;;;;;;3.95;2.60;;;;;;;;;;5005771;28;20040;-58
2022/01/09 12:55:05;;;;;;;5.30;2.90;;;;;;;;;;5005407;28;20068;-56
2022/01/09 12:57:31;;;;;;;3.67;2.85;;;;;;;;;;5005452;28;20264;-57
2022/01/09 12:59:56;;;;;;;5.50;3.03;;;;;;;;;;5006804;28;20037;-57
2022/01/09 13:02:22;;;;;;;4.13;2.85;;;;;;;;;;5005222;28;20269;-58
2022/01/09 13:04:47;;;;;;;5.70;3.03;;;;;;;;;;5005372;28;20029;-58
2022/01/09 13:07:16;;;;;;;4.55;3.00;;;;;;;;;;5006030;28;20041;-57
2022/01/09 13:09:42;;;;;;;3.88;2.35;;;;;;;;;;5008322;28;20022;-53
2022/01/09 13:12:07;;;;;;;4.70;2.67;;;;;;;;;;5007628;28;20032;-58
2022/01/09 13:14:33;;;;;;;3.78;2.58;;;;;;;;;;5019556;28;20269;-57
2022/01/09 13:16:58;;;;;;;5.03;2.95;;;;;;;;;;5024774;28;20516;-58
2022/01/09 13:19:23;;;;;;;3.88;2.67;;;;;;;;;;5024892;28;20030;-56
2022/01/09 13:21:53;;;;;;;4.57;2.67;;;;;;;;;;5023210;28;20021;-57
2022/01/09 13:24:24;;;;;;;3.97;2.50;;;;;;;;;;5022664;28;20091;-59
2022/01/09 13:26:49;;;;;;;4.88;2.80;;;;;;;;;;5024468;28;20494;-54
2022/01/09 13:29:18;;;;;;;4.13;2.77;;;;;;;;;;5024727;28;20144;-56
2022/01/09 13:31:53;;;;;;;4.68;2.50;;;;;;;;;;5024874;28;20334;-57
2022/01/09 13:34:20;;;;;;;4.75;2.75;;;;;;;;;;5024503;28;20030;-57
2022/01/09 13:36:46;;;;;;;5.80;3.00;;;;;;;;;;5019356;28;20091;-57
2022/01/09 13:39:17;;;;;;;4.10;2.75;;;;;;;;;;5013740;28;20024;-57
2022/01/09 13:41:43;;;;;;;5.03;3.00;;;;;;;;;;5007831;28;20022;-58
2022/01/09 13:44:09;;;;;;;4.13;2.70;;;;;;;;;;5006710;28;20133;-57
2022/01/09 13:46:34;;;;;;;3.55;2.75;;;;;;;;;;5007477;28;20061;-56
2022/01/09 13:49:00;;;;;;;4.32;2.60;;;;;;;;;;5004725;28;20502;-56
2022/01/09 13:51:45;;;;;;;4.10;2.50;;;;;;;;;;5006489;28;20118;-56
2022/01/09 13:54:12;;;;;;;3.97;2.60;;;;;;;;;;5004751;28;20288;-56
2022/01/09 13:56:37;;;;;;;6.25;3.03;;;;;;;;;;5004540;28;20028;-58
2022/01/09 13:59:02;;;;;;;4.70;2.73;;;;;;;;;;5004557;28;20017;-56
2022/01/09 14:01:45;;;;;;;4.03;2.60;;;;;;;;;;5005217;28;20797;-59
2022/01/09 14:04:20;;;;;;;3.35;2.15;;;;;;;;;;5010981;28;20611;-55
2022/01/09 14:07:04;;;;;;;4.47;2.63;;;;;;;;;;5004811;28;20045;-56
2022/01/09 14:09:33;;;;;;;4.70;2.70;;;;;;;;;;5005861;28;20046;-58
2022/01/09 14:11:59;;;;;;;5.17;2.67;;;;;;;;;;5004749;28;20044;-59
2022/01/09 14:14:28;;;;;;;4.95;3.28;;;;;;;;;;5004733;28;20504;-56
2022/01/09 14:16:53;;;;;;;4.38;2.58;;;;;;;;;;5008910;28;20029;-58
2022/01/09 14:19:19;;;;;;;4.10;2.70;;;;;;;;;;5006366;28;20574;-59
2022/01/09 14:21:51;;;;;;;3.90;2.77;;;;;;;;;;5004803;28;20461;-57
2022/01/09 14:24:17;;;;;;;4.35;2.40;;;;;;;;;;5004452;28;20297;-55
2022/01/09 14:26:53;;;;;;;3.03;2.20;;;;;;;;;;5005803;28;20049;-55
2022/01/09 14:29:18;;;;;;;3.75;2.50;;;;;;;;;;5006966;28;20096;-58
2022/01/09 14:31:43;;;;;;;4.20;2.70;;;;;;;;;;5005311;28;20083;-56
2022/01/09 14:34:09;;;;;;;3.70;2.70;;;;;;;;;;5004122;28;20096;-57
2022/01/09 14:36:35;;;;;;;4.50;2.80;;;;;;;;;;5007899;28;20172;-59
2022/01/09 14:39:01;;;;;;;3.75;2.40;;;;;;;;;;5005554;28;20275;-57
2022/01/09 14:41:30;;;;;;;4.05;2.90;;;;;;;;;;5005052;28;20022;-58
2022/01/09 14:43:55;;;;;;;3.75;2.70;;;;;;;;;;5005491;28;20022;-57